Text Box: All records at near 07:00 local time
Kleivo 1 weather for Jun 2011
Updated 21.08.2011 20:22:23 Month no. 55
Obs.
Da.
Temp. Dew Point Precip. Wind
Speed
Wind gusts Cloud cover Press. Humidity Wind dir. Sunny OPT
01.06.2011 7,6 5,7 2,0 3,2 1,6 0 1003,7 88,0 157,5   62,5 %
02.06.2011 10,5 8,8 1,5 0,0 0,0 0 1007,5 89,0     65,0 %
03.06.2011 9,9 8,2 0,0 1,6 1,6 3 1017,9 89,0 157,5   70,0 %
04.06.2011 10,4 8,5 0,0 1,6 1,6 1 1009,1 88,0 157,5   67,5 %
05.06.2011 6,1 4,1 0,0 0,0 0,0 9 999,7 87,0     82,5 %
06.06.2011 9,5 7,4 0,0 0,0 0,0 0 986,5 87,0     62,5 %
07.06.2011 9,9 8,2 0,0 0,0 0,0 0 983,1 89,0     62,5 %
08.06.2011 9,1 7,2 0,0 0,0 0,0 5 987,8 88,0     75,0 %
09.06.2011 10,2 8,3 0,0 0,0 0,0 0 986,8 88,0     65,0 %
10.06.2011 10,4 8,6 0,0 0,0 0,0 2 995,3 88,0     70,0 %
11.06.2011 10,8 8,7 0,0 0,0 0,0 1 992,9 87,0     67,5 %
12.06.2011 10,1 8,2 0,0 0,0 1,6 4 994,9 88,0     75,0 %
13.06.2011 11,1 7,9 0,0 1,6 0,0 3 993,6 81,0 157,5   72,5 %
14.06.2011 10,3 7,9 3,0 8,0 8,0 0 987,5 85,0 157,5   57,5 %
15.06.2011 8,9 7,2 3,0 3,2 4,8 1 994,6 89,0 0,0   62,5 %
16.06.2011 11,9 8,2 4,1 4,8 8,0 5 992,2 78,0 135,0   72,5 %
17.06.2011 10,9 8,8 10,2 0,0 0,0 1 983,7 87,0     60,0 %
18.06.2011 10,1 8,2 0,0 0,0 0,0 10 983,7 88,0     90,0 %
19.06.2011 11,6 9,7 0,0 0,0 0,0 0 979,7 88,0     65,0 %
20.06.2011 11,4 8,9 0,0 0,0 0,0 0 985,8 85,0     65,0 %
21.06.2011 10,9 9,0 0,0 0,0 0,0 0 986,5 88,0     65,0 %
22.06.2011 8,4 6,3 14,0 0,0 0,0 4 985,8 87,0     62,5 %
23.06.2011 11,5 8,9 1,5 0,0 0,0 0 983,7 84,0     65,0 %
24.06.2011 9,1 7,1 0,5 9,7 12,9 0 988,8 87,0 315,0   57,5 %
25.06.2011 8,9 6,5 0,0 0,0 0,0 4 997,3 85,0     72,5 %
26.06.2011 8,5 5,9 0,0 1,6 3,2 5 998,6 84,0 180,0   75,0 %
27.06.2011 13,8 11,8 2,0 1,6 3,2 0 997,6 88,0 180,0   67,5 %
28.06.2011 18,2 15,3 9,4 9,7 9,7 0 993,9 83,0 112,5   60,0 %
29.06.2011 14,6 12,4 27,9 0,0 0,0 0 993,2 87,0     45,0 %
30.06.2011 8,9 7,1 0,0 3,2 3,2 7 999,0 88,0 180,0   80,0 %
                       
Avrg/Sum 10,5 8,3 79,1 1,7 2,0 2,2 993,0 86,6 157,5   67,3 %